createdAt,value
2023-06-20T00:01:57.800Z,11.05
2023-06-20T00:04:59.145Z,10.73
2023-06-20T00:08:00.470Z,10.13
2023-06-20T00:11:01.807Z,10.75
2023-06-20T00:14:03.157Z,10.77
2023-06-20T00:17:04.505Z,11.52
2023-06-20T00:20:05.817Z,11.25
2023-06-20T00:23:07.180Z,10.93
2023-06-20T00:26:08.524Z,11.98
2023-06-20T00:29:09.888Z,11.77
2023-06-20T00:32:11.225Z,11.07
2023-06-20T00:35:12.566Z,11.43
2023-06-20T00:38:13.914Z,11.38
2023-06-20T00:41:15.242Z,12.23
2023-06-20T00:44:16.605Z,12.13
2023-06-20T00:47:17.946Z,12.30
2023-06-20T00:50:19.570Z,13.68
2023-06-20T00:53:20.884Z,11.45
2023-06-20T00:56:22.234Z,11.95
2023-06-20T00:59:23.549Z,11.20
2023-06-20T01:02:24.980Z,11.23
2023-06-20T01:05:26.603Z,11.77
2023-06-20T01:08:28.084Z,11.60
2023-06-20T01:11:29.446Z,11.75
2023-06-20T01:14:30.785Z,12.17
2023-06-20T01:17:32.224Z,11.00
2023-06-20T01:20:33.607Z,11.13
2023-06-20T01:23:34.954Z,9.93
2023-06-20T01:26:36.318Z,11.38
2023-06-20T01:29:37.690Z,9.80
2023-06-20T01:32:39.036Z,10.70
2023-06-20T01:35:40.471Z,10.18
2023-06-20T01:38:41.834Z,11.15
2023-06-20T01:41:43.196Z,10.35
2023-06-20T01:44:44.517Z,10.80
2023-06-20T01:47:45.895Z,10.52
2023-06-20T01:50:47.281Z,11.05
2023-06-20T01:53:48.645Z,10.60
2023-06-20T01:56:49.990Z,10.23
2023-06-20T01:59:51.434Z,9.97
2023-06-20T02:02:52.901Z,10.35
2023-06-20T02:05:54.491Z,10.52
2023-06-20T02:08:55.840Z,10.85
2023-06-20T02:11:57.193Z,9.88
2023-06-20T02:14:58.616Z,9.20
2023-06-20T02:18:00.001Z,9.30
2023-06-20T02:21:01.356Z,10.60
2023-06-20T02:24:02.741Z,9.98
2023-06-20T02:27:04.129Z,9.20
2023-06-20T02:30:05.488Z,9.43
2023-06-20T02:33:06.825Z,10.18
2023-06-20T02:36:08.186Z,10.35
2023-06-20T02:39:09.560Z,9.85
2023-06-20T02:42:10.895Z,9.32
2023-06-20T02:45:12.264Z,9.00
2023-06-20T02:48:13.619Z,8.95
2023-06-20T02:51:14.965Z,10.05
2023-06-20T02:54:16.310Z,8.35
2023-06-20T02:57:17.648Z,8.27
2023-06-20T03:00:18.987Z,9.60
2023-06-20T03:03:20.449Z,9.73
2023-06-20T03:06:21.854Z,10.23
2023-06-20T03:09:23.196Z,9.23
2023-06-20T03:12:24.526Z,8.07
2023-06-20T03:15:26.006Z,8.40
2023-06-20T03:18:27.589Z,9.38
2023-06-20T03:21:29.991Z,9.98
2023-06-20T03:24:31.586Z,11.48
2023-06-20T03:27:32.937Z,12.32
2023-06-20T03:30:34.295Z,10.07
2023-06-20T03:33:35.620Z,10.90
2023-06-20T03:36:36.977Z,12.18
2023-06-20T03:39:38.321Z,11.50
2023-06-20T03:42:39.674Z,10.15
2023-06-20T03:45:41.058Z,9.13
2023-06-20T03:48:42.412Z,10.52
2023-06-20T03:51:43.747Z,10.95
2023-06-20T03:54:45.109Z,9.77
2023-06-20T03:57:46.462Z,10.45
2023-06-20T04:00:47.838Z,9.43
2023-06-20T04:03:49.299Z,10.88
2023-06-20T04:06:50.793Z,10.52
2023-06-20T04:09:52.218Z,10.32
2023-06-20T04:12:53.544Z,9.95
2023-06-20T04:15:54.896Z,9.77
2023-06-20T04:18:56.243Z,9.73
2023-06-20T04:21:57.578Z,10.38
2023-06-20T04:24:58.901Z,10.38
2023-06-20T04:28:00.250Z,9.68
2023-06-20T04:31:01.598Z,9.23
2023-06-20T04:34:02.943Z,10.25
2023-06-20T04:37:04.424Z,12.73
2023-06-20T04:40:05.762Z,10.35
2023-06-20T04:43:07.103Z,11.50
2023-06-20T04:46:08.464Z,10.20
2023-06-20T04:49:09.817Z,11.38
2023-06-20T04:52:11.166Z,11.85
2023-06-20T04:55:12.519Z,12.68
2023-06-20T04:58:13.848Z,10.40
2023-06-20T05:01:15.271Z,10.57
2023-06-20T05:04:16.676Z,11.75
2023-06-20T05:07:18.061Z,12.02
2023-06-20T05:10:19.395Z,11.25
2023-06-20T05:13:20.781Z,10.85
2023-06-20T05:16:22.177Z,12.23
2023-06-20T05:19:23.566Z,12.43
2023-06-20T05:22:24.915Z,12.18
2023-06-20T05:25:26.266Z,11.75
2023-06-20T05:28:27.592Z,13.18
2023-06-20T05:31:29.105Z,12.53
2023-06-20T05:34:30.494Z,11.07
2023-06-20T05:37:31.855Z,11.60
2023-06-20T05:40:33.225Z,9.93
2023-06-20T05:43:34.602Z,10.95
2023-06-20T05:46:36.022Z,11.40
2023-06-20T05:49:37.377Z,11.75
2023-06-20T05:52:38.735Z,13.05
2023-06-20T05:55:40.068Z,12.65
2023-06-20T05:58:41.416Z,14.52
2023-06-20T06:01:42.977Z,11.60
2023-06-20T06:04:44.481Z,12.38
2023-06-20T06:07:45.978Z,13.25
2023-06-20T06:10:47.356Z,12.82
2023-06-20T06:13:48.694Z,13.02
2023-06-20T06:16:50.094Z,13.53
2023-06-20T06:19:51.541Z,13.25
2023-06-20T06:22:52.973Z,12.18
2023-06-20T06:25:54.333Z,15.10
2023-06-20T06:28:55.788Z,13.50
2023-06-20T06:31:57.227Z,12.73
2023-06-20T06:34:58.613Z,12.85
2023-06-20T06:37:59.939Z,13.23
2023-06-20T06:41:01.303Z,12.48
2023-06-20T06:44:02.654Z,12.85
2023-06-20T06:47:04.002Z,11.70
2023-06-20T06:50:05.392Z,12.25
2023-06-20T06:53:06.750Z,13.18
2023-06-20T06:56:08.116Z,11.68
2023-06-20T06:59:09.468Z,12.43
2023-06-20T07:02:10.894Z,12.43
2023-06-20T07:05:12.275Z,12.93
2023-06-20T07:08:13.623Z,15.07
2023-06-20T07:11:15.000Z,13.73
2023-06-20T07:14:16.333Z,14.68
2023-06-20T07:17:17.761Z,14.30
2023-06-20T07:20:19.162Z,15.50
2023-06-20T07:23:20.517Z,14.70
2023-06-20T07:26:21.985Z,13.20
2023-06-20T07:29:23.302Z,14.45
2023-06-20T07:32:24.690Z,13.77
2023-06-20T07:35:26.159Z,13.27
2023-06-20T07:38:27.790Z,13.48
2023-06-20T07:41:29.132Z,13.38
2023-06-20T07:44:30.481Z,13.20
2023-06-20T07:47:31.894Z,12.77
2023-06-20T07:50:33.321Z,13.20
2023-06-20T07:53:34.685Z,13.32
2023-06-20T07:56:36.060Z,13.80
2023-06-20T07:59:37.402Z,12.75
2023-06-20T08:02:38.914Z,13.20
2023-06-20T08:05:40.271Z,14.05
2023-06-20T08:08:41.631Z,13.32
2023-06-20T08:11:42.990Z,10.80
2023-06-20T08:14:44.338Z,11.18
2023-06-20T08:17:45.805Z,12.20
2023-06-20T08:20:47.216Z,12.05
2023-06-20T08:23:48.564Z,11.77
2023-06-20T08:26:49.920Z,11.63
2023-06-20T08:29:51.270Z,12.15
2023-06-20T08:32:52.633Z,10.73
2023-06-20T08:35:54.060Z,11.48
2023-06-20T08:38:55.423Z,10.95
2023-06-20T08:41:56.789Z,11.55
2023-06-20T08:44:58.905Z,11.65
2023-06-20T08:48:00.735Z,10.87
2023-06-20T08:51:02.233Z,11.07
2023-06-20T08:54:03.591Z,11.55
2023-06-20T08:57:05.011Z,10.85
2023-06-20T09:00:06.359Z,12.05
2023-06-20T09:03:07.843Z,11.50
2023-06-20T09:06:09.425Z,10.65
2023-06-20T09:09:10.791Z,12.15
2023-06-20T09:12:12.142Z,11.55
2023-06-20T09:15:13.523Z,10.43
2023-06-20T09:18:15.039Z,12.03
2023-06-20T09:21:16.697Z,11.55
2023-06-20T09:24:18.145Z,10.75
2023-06-20T09:27:19.705Z,10.43
2023-06-20T09:30:24.238Z,11.25
2023-06-20T09:33:26.993Z,9.67
2023-06-20T09:36:33.214Z,10.98
2023-06-20T09:39:34.821Z,10.85
2023-06-20T09:42:36.180Z,11.43
2023-06-20T09:45:37.501Z,10.40
2023-06-20T09:48:38.830Z,10.53
2023-06-20T09:51:40.209Z,11.02
2023-06-20T09:54:41.630Z,10.30
2023-06-20T09:57:42.999Z,10.40
2023-06-20T10:00:44.349Z,10.13
2023-06-20T10:03:45.845Z,11.17
2023-06-20T10:06:47.406Z,10.10
2023-06-20T10:09:48.742Z,11.10
2023-06-20T10:12:50.121Z,10.63
2023-06-20T10:15:51.498Z,11.00
2023-06-20T10:18:52.934Z,12.03
2023-06-20T10:21:54.322Z,12.20
2023-06-20T10:24:55.707Z,10.98
2023-06-20T10:27:57.082Z,10.88
2023-06-20T10:30:58.705Z,11.77
2023-06-20T10:34:00.299Z,11.07
2023-06-20T10:37:01.657Z,11.30
2023-06-20T10:40:03.029Z,11.35
2023-06-20T10:43:04.372Z,11.05
2023-06-20T10:46:05.756Z,12.05
2023-06-20T10:49:07.164Z,11.23
2023-06-20T10:52:08.526Z,10.68
2023-06-20T10:55:09.847Z,11.20
2023-06-20T10:58:24.171Z,11.27
2023-06-20T11:01:32.623Z,11.52
2023-06-20T11:04:33.960Z,10.27
2023-06-20T11:07:50.777Z,10.20
2023-06-20T11:10:53.085Z,11.43
2023-06-20T11:13:54.459Z,9.63
2023-06-20T11:16:55.854Z,10.70
2023-06-20T11:19:57.206Z,11.17
2023-06-20T11:22:58.564Z,10.60
2023-06-20T11:26:01.270Z,11.77
2023-06-20T11:29:13.737Z,11.70
2023-06-20T11:32:15.863Z,11.77
2023-06-20T11:35:17.227Z,12.03
2023-06-20T11:38:18.590Z,11.32
2023-06-20T11:41:21.140Z,13.05
2023-06-20T11:44:22.488Z,12.18
2023-06-20T11:47:23.849Z,12.80
2023-06-20T11:50:25.561Z,11.83
2023-06-20T11:53:27.136Z,11.50
2023-06-20T11:56:28.493Z,11.50
2023-06-20T11:59:29.854Z,12.30
2023-06-20T12:02:31.232Z,13.82
2023-06-20T12:05:32.656Z,12.97
2023-06-20T12:08:34.001Z,13.18
2023-06-20T12:11:35.349Z,11.95
2023-06-20T12:14:36.705Z,12.38
2023-06-20T12:17:38.078Z,12.52
2023-06-20T12:20:47.734Z,11.73
2023-06-20T12:24:00.256Z,12.52
2023-06-20T12:27:01.660Z,13.32
2023-06-20T12:30:03.017Z,12.23
2023-06-20T12:33:04.681Z,12.70
2023-06-20T12:36:06.110Z,11.27
2023-06-20T12:39:07.511Z,11.88
2023-06-20T12:42:08.877Z,12.20
2023-06-20T12:45:10.247Z,12.20
2023-06-20T12:48:11.635Z,12.63
2023-06-20T12:51:13.056Z,11.47
2023-06-20T12:54:14.413Z,12.40
2023-06-20T12:57:15.793Z,13.05
2023-06-20T13:00:17.136Z,12.38
2023-06-20T13:03:18.604Z,12.68
2023-06-20T13:06:20.280Z,12.87
2023-06-20T13:09:21.662Z,12.15
2023-06-20T13:12:23.009Z,12.65
2023-06-20T13:15:24.365Z,11.00
2023-06-20T13:18:25.706Z,11.52
2023-06-20T13:21:27.067Z,10.93
2023-06-20T13:24:28.472Z,12.23
2023-06-20T13:27:29.846Z,12.38
2023-06-20T13:30:31.198Z,12.88
2023-06-20T13:33:32.563Z,12.73
2023-06-20T13:36:33.972Z,12.90
2023-06-20T13:39:35.332Z,11.65
2023-06-20T13:42:36.812Z,13.00
2023-06-20T13:45:38.184Z,12.77
2023-06-20T13:48:39.553Z,13.32
2023-06-20T13:51:40.909Z,11.87
2023-06-20T13:54:42.269Z,13.35
2023-06-20T13:57:43.613Z,13.70
2023-06-20T14:00:45.021Z,12.32
2023-06-20T14:03:46.428Z,12.32
2023-06-20T14:06:47.795Z,12.67
2023-06-20T14:09:49.140Z,11.13
2023-06-20T14:12:50.477Z,12.10
2023-06-20T14:15:51.830Z,12.57
2023-06-20T14:18:53.188Z,12.95
2023-06-20T14:21:54.548Z,13.40
2023-06-20T14:24:55.901Z,13.32
2023-06-20T14:27:57.244Z,12.13
2023-06-20T14:30:58.600Z,12.20
2023-06-20T14:33:59.955Z,11.40
2023-06-20T14:37:01.306Z,13.00
2023-06-20T14:40:02.657Z,13.05
2023-06-20T14:43:04.042Z,13.45
2023-06-20T14:46:05.446Z,12.18
2023-06-20T14:49:06.823Z,12.98
2023-06-20T14:52:08.187Z,11.23
2023-06-20T14:55:09.527Z,10.52
2023-06-20T14:58:10.873Z,12.15
2023-06-20T15:01:12.245Z,11.15
2023-06-20T15:04:13.654Z,11.85
2023-06-20T15:07:15.026Z,12.23
2023-06-20T15:10:16.387Z,13.98
2023-06-20T15:13:17.727Z,13.90
2023-06-20T15:16:19.117Z,13.27
2023-06-20T15:19:20.655Z,13.35
2023-06-20T15:22:21.965Z,11.87
2023-06-20T15:25:23.334Z,13.00
2023-06-20T15:28:24.706Z,12.27
2023-06-20T15:31:26.112Z,12.23
2023-06-20T15:34:27.477Z,12.63
2023-06-20T15:37:28.854Z,13.27
2023-06-20T15:40:30.173Z,14.05
2023-06-20T15:43:31.549Z,14.13
2023-06-20T15:46:44.430Z,16.35
2023-06-20T15:49:54.237Z,13.45
2023-06-20T15:52:55.570Z,13.73
2023-06-20T15:55:56.918Z,12.85
2023-06-20T15:58:58.280Z,11.73
2023-06-20T16:01:59.642Z,13.35
2023-06-20T16:05:00.991Z,12.88
2023-06-20T16:08:02.341Z,11.37
2023-06-20T16:11:03.711Z,11.30
2023-06-20T16:14:05.039Z,10.82
2023-06-20T16:17:06.420Z,12.55
2023-06-20T16:20:07.794Z,13.30
2023-06-20T16:23:09.662Z,12.50
2023-06-20T16:26:11.045Z,11.85
2023-06-20T16:29:12.384Z,11.85
2023-06-20T16:32:13.726Z,13.30
2023-06-20T16:35:15.090Z,11.57
2023-06-20T16:38:16.435Z,10.93
2023-06-20T16:41:17.796Z,11.45
2023-06-20T16:44:19.130Z,11.82
2023-06-20T16:47:20.453Z,11.18
2023-06-20T16:50:21.849Z,11.63
2023-06-20T16:53:23.242Z,12.73
2023-06-20T16:56:24.604Z,12.43
2023-06-20T16:59:25.940Z,12.95
2023-06-20T17:02:27.520Z,10.82
2023-06-20T17:05:28.942Z,11.60
2023-06-20T17:08:30.294Z,11.33
2023-06-20T17:11:31.634Z,12.48
2023-06-20T17:14:33.001Z,11.20
2023-06-20T17:17:34.379Z,11.90
2023-06-20T17:20:35.924Z,10.85
2023-06-20T17:23:37.295Z,10.60
2023-06-20T17:26:38.650Z,11.27
2023-06-20T17:29:39.987Z,12.40
2023-06-20T17:32:43.472Z,10.63
2023-06-20T17:35:46.575Z,11.40
2023-06-20T17:38:47.894Z,9.83
2023-06-20T17:41:49.252Z,10.70
2023-06-20T17:44:50.601Z,10.65
2023-06-20T17:47:52.023Z,11.23
2023-06-20T17:50:53.379Z,10.65
2023-06-20T17:53:54.717Z,10.47
2023-06-20T17:56:56.069Z,9.95
2023-06-20T17:59:57.388Z,11.63
2023-06-20T18:02:58.869Z,10.93
2023-06-20T18:06:00.372Z,10.32
2023-06-20T18:09:01.740Z,10.00
2023-06-20T18:12:03.086Z,11.32
2023-06-20T18:15:04.440Z,11.32
2023-06-20T18:18:05.841Z,10.95
2023-06-20T18:21:07.270Z,11.43
2023-06-20T18:24:08.623Z,11.87
2023-06-20T18:27:10.268Z,11.02
2023-06-20T18:30:11.754Z,11.35
2023-06-20T18:33:13.102Z,12.10
2023-06-20T18:36:14.560Z,10.63
2023-06-20T18:39:16.089Z,11.40
2023-06-20T18:42:17.463Z,10.85
2023-06-20T18:45:19.106Z,11.50
2023-06-20T18:48:20.554Z,10.27
2023-06-20T18:51:21.977Z,10.88
2023-06-20T18:54:23.337Z,10.90
2023-06-20T18:57:24.687Z,11.02
2023-06-20T19:00:26.338Z,11.27
2023-06-20T19:03:27.917Z,11.13
2023-06-20T19:06:29.335Z,10.35
2023-06-20T19:09:30.677Z,11.23
2023-06-20T19:12:32.042Z,10.45
2023-06-20T19:15:33.418Z,11.23
2023-06-20T19:18:34.797Z,9.18
2023-06-20T19:21:36.155Z,11.10
2023-06-20T19:24:37.900Z,11.20
2023-06-20T19:27:39.381Z,10.30
2023-06-20T19:30:40.732Z,10.23
2023-06-20T19:33:42.104Z,9.82
2023-06-20T19:36:43.719Z,11.93
2023-06-20T19:39:45.186Z,10.43
2023-06-20T19:42:46.525Z,10.80
2023-06-20T19:45:48.252Z,10.30
2023-06-20T19:48:49.825Z,9.43
2023-06-20T19:51:51.222Z,10.68
2023-06-20T19:54:52.554Z,10.87
2023-06-20T19:57:54.305Z,11.70
2023-06-20T20:00:55.750Z,10.43
2023-06-20T20:03:57.292Z,9.25
2023-06-20T20:06:58.828Z,9.82
2023-06-20T20:10:00.202Z,10.97
2023-06-20T20:13:01.745Z,10.95
2023-06-20T20:16:03.154Z,11.52
2023-06-20T20:19:04.497Z,9.95
2023-06-20T20:22:05.853Z,11.43
2023-06-20T20:25:12.214Z,11.43
2023-06-20T20:28:14.704Z,11.20
2023-06-20T20:31:16.154Z,10.25
2023-06-20T20:34:17.506Z,9.55
2023-06-20T20:37:18.869Z,10.68
2023-06-20T20:40:20.197Z,10.57
2023-06-20T20:43:21.642Z,10.13
2023-06-20T20:46:23.058Z,10.93
2023-06-20T20:49:24.436Z,11.05
2023-06-20T20:52:25.772Z,10.07
2023-06-20T20:55:27.132Z,10.47
2023-06-20T20:58:28.511Z,10.68
2023-06-20T21:01:29.882Z,11.45
2023-06-20T21:04:31.263Z,10.07
2023-06-20T21:07:32.594Z,10.45
2023-06-20T21:10:33.953Z,11.10
2023-06-20T21:13:35.291Z,10.07
2023-06-20T21:16:36.658Z,9.60
2023-06-20T21:19:38.040Z,9.95
2023-06-20T21:22:39.399Z,9.98
2023-06-20T21:25:40.730Z,9.97
2023-06-20T21:28:42.060Z,9.98
2023-06-20T21:31:43.400Z,10.88
2023-06-20T21:34:44.746Z,9.73
2023-06-20T21:37:46.073Z,11.48
2023-06-20T21:40:47.432Z,9.60
2023-06-20T21:43:48.761Z,10.93
2023-06-20T21:46:50.222Z,10.90
2023-06-20T21:49:51.663Z,10.30
2023-06-20T21:52:52.985Z,10.30
2023-06-20T21:55:54.350Z,11.27
2023-06-20T21:58:55.734Z,11.65
2023-06-20T22:01:57.098Z,8.82
2023-06-20T22:04:58.433Z,9.48
2023-06-20T22:07:59.793Z,10.27
2023-06-20T22:11:01.123Z,10.23
2023-06-20T22:14:02.495Z,10.60
2023-06-20T22:17:03.829Z,11.23
2023-06-20T22:20:05.163Z,11.55
2023-06-20T22:23:08.063Z,10.82
2023-06-20T22:26:10.642Z,11.10
2023-06-20T22:29:11.992Z,11.38
2023-06-20T22:32:13.393Z,11.90
2023-06-20T22:35:14.745Z,11.60
2023-06-20T22:38:16.266Z,10.93
2023-06-20T22:41:17.618Z,10.93
2023-06-20T22:44:18.949Z,10.23
2023-06-20T22:47:20.353Z,9.68
2023-06-20T22:50:21.724Z,10.27
2023-06-20T22:53:23.066Z,10.25
2023-06-20T22:56:24.400Z,10.87
2023-06-20T22:59:25.731Z,10.65
2023-06-20T23:02:27.164Z,13.90
2023-06-20T23:05:28.561Z,12.40
2023-06-20T23:08:29.898Z,12.32
2023-06-20T23:11:31.229Z,12.47
2023-06-20T23:14:32.595Z,14.40
2023-06-20T23:17:34.031Z,13.68
2023-06-20T23:20:35.442Z,12.15
2023-06-20T23:23:36.779Z,10.73
2023-06-20T23:26:38.125Z,12.67
2023-06-20T23:29:39.491Z,12.88
2023-06-20T23:32:40.954Z,12.43
2023-06-20T23:35:42.337Z,14.75
2023-06-20T23:38:43.696Z,12.40
2023-06-20T23:41:45.035Z,10.57
2023-06-20T23:44:46.392Z,9.98
2023-06-20T23:47:47.783Z,12.23
2023-06-20T23:50:49.199Z,10.30
2023-06-20T23:53:50.540Z,11.18
2023-06-20T23:56:51.894Z,10.37
2023-06-20T23:59:53.245Z,11.27
